M I D A S
Marine Information and Data Acquisition System
Tripno 1341 of the Zeeleeuw from 2007-04-04 06:48:28 to 2007-04-04 10:23:54
Back to CruiseResearch ActivitiesStationsMapUnderway DataData graphs

EquipmentUnitsComment
TimeDGPSUTC
LatitudeDGPSDM.mWGS84
LongitudeDGPSDM.mWGS84
TemperatureSBE03/SBE38deg celciusITS90
ConductivitySBE21S/mITS90
SalinitySBE21 Practical Salinity Units
ChlorophylAChelsea fluorimeterg/lCalibrated in Aceton
Missing or incorrect values are displayed as -999
Sea surface data collected by the RV Zeeleeuw from 2007-04-04 06:29:56 to 2007-04-04 15:23:51
Time Latitude Longitude Temperature Conductivity Salinity ChlorophylA
2007-04-04 06:31:00 51°13.619 2°56.036 16.2412 0.062826 0.357621 -2.871232
2007-04-04 06:32:00 51°13.649 2°55.922 16.2993 0.062826 0.357591 -2.871232
2007-04-04 06:33:00 51°13.686 2°55.815 12.6458 0.410515 2.508491 -2.871232
2007-04-04 06:34:00 51°13.707 2°55.733 9.7067 2.939955 24.662668 -2.871232
2007-04-04 06:35:00 51°13.712 2°55.713 9.4637 2.863223 24.601 -2.871232
2007-04-04 06:36:00 51°13.712 2°55.719 9.3568 2.827858 24.391554 -2.871232
2007-04-04 06:37:00 51°13.725 2°55.715 9.2507 2.847094 24.676422 -2.871232
2007-04-04 06:38:00 51°13.791 2°55.669 9.213 2.815555 24.437523 -2.871232
2007-04-04 06:39:00 51°13.9 2°55.588 9.1675 2.812039 24.428894 -2.871232
2007-04-04 06:40:00 51°14.023 2°55.498 9.1314 2.869123 25.015626 -2.871232
2007-04-04 06:41:00 51°14.146 2°55.401 9.0566 2.899116 25.349895 -2.871232
2007-04-04 06:42:00 51°14.254 2°55.262 9.0184 2.900771 25.404644 -2.871232
2007-04-04 06:43:00 51°14.361 2°55.07 8.9319 2.92094 25.649474 -2.871232
2007-04-04 06:44:00 51°14.501 2°54.824 8.7608 2.960659 26.077064 -2.871232
2007-04-04 06:45:00 51°14.661 2°54.588 8.7517 3.157858 28.170926 -2.871232
2007-04-04 06:46:00 51°14.825 2°54.355 8.8035 3.223885 28.764817 -2.871232
2007-04-04 06:47:00 51°14.987 2°54.132 8.7923 3.235788 28.886197 -2.871232
2007-04-04 06:48:00 51°15.166 2°53.957 8.8058 3.239617 28.909411 -2.871232
2007-04-04 06:49:00 51°15.347 2°53.775 8.8083 3.241894 28.941909 -2.871232
2007-04-04 06:50:00 51°15.534 2°53.598 8.8145 3.243033 28.950846 -2.871232
2007-04-04 06:51:00 51°15.727 2°53.431 8.8057 3.248518 28.992705 -2.871232
2007-04-04 06:52:00 51°15.919 2°53.264 8.7966 3.250796 29.032963 -2.871232
2007-04-04 06:53:00 51°16.112 2°53.127 8.7791 3.246552 29.008778 -2.871232
2007-04-04 06:54:00 51°16.305 2°52.99 8.781 3.244275 28.990121 -2.871232
2007-04-04 06:55:00 51°16.498 2°52.853 8.7777 3.244793 28.999875 -2.871232
2007-04-04 06:56:00 51°16.696 2°52.729 8.7707 3.246863 29.023445 -2.871232
2007-04-04 06:57:00 51°16.89 2°52.617 8.7733 3.251935 29.075951 -2.871232
2007-04-04 06:58:00 51°17.083 2°52.502 8.7774 3.255971 29.117456 -2.871232
2007-04-04 06:59:00 51°17.277 2°52.385 8.7951 3.263734 29.179538 -2.871232
2007-04-04 07:00:00 51°17.468 2°52.247 8.8033 3.268288 29.216057 -2.871232
2007-04-04 07:01:00 51°17.652 2°52.081 8.7882 3.269427 29.234332 -2.871232
2007-04-04 07:02:00 51°17.837 2°51.907 8.7849 3.269841 29.245442 -2.871232
2007-04-04 07:03:00 51°18.022 2°51.731 8.7869 3.273464 29.284438 -2.871232
2007-04-04 07:04:00 51°18.211 2°51.552 8.7773 3.275431 29.30548 -2.871232
2007-04-04 07:05:00 51°18.388 2°51.341 8.7654 3.276156 29.317345 -2.871232
2007-04-04 07:06:00 51°18.531 2°51.064 8.748 3.282263 29.397451 -2.871232
2007-04-04 07:07:00 51°18.621 2°50.715 8.7896 3.298515 29.550799 -2.871232
2007-04-04 07:08:00 51°18.705 2°50.362 8.792 3.30752 29.616478 -2.871232
2007-04-04 07:09:00 51°18.784 2°50.008 8.7973 3.310315 29.6442 -2.871232
2007-04-04 07:10:00 51°18.849 2°49.646 8.8086 3.311764 29.651465 -2.871232
2007-04-04 07:11:00 51°18.916 2°49.283 8.808 3.315284 29.678467 -2.871232
2007-04-04 07:12:00 51°18.992 2°48.923 8.8017 3.320253 29.730121 -2.871232
2007-04-04 07:13:00 51°19.063 2°48.554 8.7889 3.322324 29.765722 -2.871232
2007-04-04 07:14:00 51°19.129 2°48.188 8.7833 3.331434 29.856954 -2.871232
2007-04-04 07:15:00 51°19.199 2°47.819 8.7925 3.333815 29.882987 -2.871232
2007-04-04 07:16:00 51°19.267 2°47.448 8.7909 3.330916 29.848633 -2.871232
2007-04-04 07:17:00 51°19.335 2°47.073 8.7851 3.326154 29.802948 -2.871232
2007-04-04 07:18:00 51°19.401 2°46.698 8.7806 3.335989 29.897407 -2.871232
2007-04-04 07:19:00 51°19.471 2°46.326 8.7751 3.343339 29.985589 -2.871232
2007-04-04 07:20:00 51°19.538 2°45.958 8.7932 3.357523 30.119363 -2.871232
2007-04-04 07:21:00 51°19.607 2°45.59 8.8017 3.362492 30.159128 -2.871232
2007-04-04 07:22:00 51°19.679 2°45.222 8.8029 3.366737 30.198111 -2.871232
2007-04-04 07:23:00 51°19.749 2°44.856 8.8051 3.374916 30.272182 -2.871232
2007-04-04 07:24:00 51°19.819 2°44.487 8.8017 3.379782 30.322995 -2.871232
2007-04-04 07:25:00 51°19.888 2°44.117 8.798 3.383923 30.371472 -2.871232
2007-04-04 07:26:00 51°19.959 2°43.743 8.7894 3.386615 30.39988 -2.871232
2007-04-04 07:27:00 51°20.03 2°43.37 8.7745 3.384027 30.382218 -2.871232
2007-04-04 07:28:00 51°20.098 2°42.996 8.7489 3.384234 30.403732 -2.871232
2007-04-04 07:29:00 51°20.166 2°42.625 8.7563 3.401836 30.592989 -2.871232
2007-04-04 07:30:00 51°20.241 2°42.259 8.7507 3.415193 30.715572 -2.871232
2007-04-04 07:31:00 51°20.307 2°41.889 8.7386 3.415504 30.732611 -2.871232
2007-04-04 07:32:00 51°20.382 2°41.517 8.7396 3.414675 30.728446 -2.871232
2007-04-04 07:33:00 51°20.452 2°41.143 8.7402 3.416539 30.746228 -2.871232
2007-04-04 07:34:00 51°20.525 2°40.77 8.7327 3.419024 30.770211 -2.871232
2007-04-04 07:35:00 51°20.596 2°40.398 8.728 3.42037 30.794336 -2.871232
2007-04-04 07:36:00 51°20.691 2°40.05 8.7241 3.423891 30.834437 -2.871232
2007-04-04 07:37:00 51°20.871 2°39.855 8.7187 3.429275 30.88823 -2.871232
2007-04-04 07:38:00 51°21.071 2°39.851 8.7083 3.432278 30.927323 -2.871232
2007-04-04 07:39:00 51°21.256 2°39.861 8.7247 3.441701 31.028997 -2.871232
2007-04-04 07:40:00 51°21.452 2°39.857 8.7392 3.474217 31.330187 -2.871232
2007-04-04 07:41:00 51°21.65 2°39.854 8.7387 3.480119 31.382571 -2.871232
2007-04-04 07:42:00 51°21.843 2°39.84 8.7242 3.48333 31.423099 -2.871232
2007-04-04 07:43:00 51°22.038 2°39.826 8.7158 3.483019 31.425865 -2.871232
2007-04-04 07:44:00 51°22.228 2°39.801 8.7171 3.48623 31.464746 -2.871232
2007-04-04 07:45:00 51°22.387 2°39.585 8.7363 3.492236 31.524934 -2.871232
2007-04-04 07:46:00 51°22.436 2°39.212 8.7502 3.500625 31.592131 -2.871232
2007-04-04 07:47:00 51°22.483 2°38.833 8.7497 3.506113 31.631928 -2.871232
2007-04-04 07:48:00 51°22.548 2°38.457 8.7464 3.505803 31.630504 -2.871232
2007-04-04 07:49:00 51°22.639 2°38.099 8.7427 3.505803 31.62966 -2.871232
2007-04-04 07:50:00 51°22.736 2°37.744 8.7394 3.506942 31.645297 -2.871232
2007-04-04 07:51:00 51°22.831 2°37.394 8.7463 3.51212 31.699727 -2.871232
2007-04-04 07:52:00 51°22.921 2°37.042 8.7442 3.516988 31.750215 -2.871232
2007-04-04 07:53:00 51°23.014 2°36.691 8.7544 3.522477 31.802704 -2.871232
2007-04-04 07:54:00 51°23.11 2°36.344 8.7511 3.527966 31.853497 -2.871232
2007-04-04 07:55:00 51°23.203 2°35.992 8.7518 3.534491 31.91894 -2.871232
2007-04-04 07:56:00 51°23.297 2°35.648 8.8086 3.543502 32.007635 -2.871232
2007-04-04 07:57:00 51°23.388 2°35.306 8.8474 3.584932 32.346867 -2.871232
2007-04-04 07:58:00 51°23.476 2°34.959 8.8394 3.588246 32.365451 -2.871232
2007-04-04 07:59:00 51°23.569 2°34.62 8.8289 3.583896 32.334756 -2.871232
2007-04-04 08:00:00 51°23.726 2°34.382 8.8318 3.583482 32.33577 -2.871232
2007-04-04 08:01:00 51°23.918 2°34.314 8.8352 3.591354 32.406101 -2.871232
2007-04-04 08:02:00 51°24.107 2°34.291 8.8361 3.597362 32.466367 -2.871232
2007-04-04 08:03:00 51°24.293 2°34.262 8.8307 3.60192 32.51383 -2.871232
2007-04-04 08:04:00 51°24.486 2°34.229 8.8413 3.609896 32.593017 -2.871232
2007-04-04 08:05:00 51°24.671 2°34.192 8.8514 3.614661 32.627816 -2.871232
2007-04-04 08:06:00 51°24.859 2°34.156 8.8605 3.617044 32.645643 -2.871232
2007-04-04 08:07:00 51°25.053 2°34.121 8.8571 3.617872 32.65396 -2.871232
2007-04-04 08:08:00 51°25.239 2°34.097 8.8698 3.618908 32.654792 -2.871232
2007-04-04 08:09:00 51°25.431 2°34.084 8.873 3.621187 32.671571 -2.871232
2007-04-04 08:10:00 51°25.624 2°34.069 8.8854 3.622637 32.677425 -2.871232
2007-04-04 08:11:00 51°25.815 2°34.049 8.8844 3.623362 32.680351 -2.871232
2007-04-04 08:12:00 51°26.007 2°34.017 8.8811 3.623777 32.685376 -2.871232
2007-04-04 08:13:00 51°26.196 2°34.018 8.8901 3.624398 32.690741 -2.871232
2007-04-04 08:14:00 51°26.387 2°34.028 8.8897 3.626159 32.704054 -2.871232
2007-04-04 08:15:00 51°26.578 2°34.038 8.8911 3.626781 32.709418 -2.871232
2007-04-04 08:16:00 51°26.769 2°34.043 8.9005 3.628749 32.725677 -2.871232
2007-04-04 08:17:00 51°26.962 2°34.053 8.9142 3.632893 32.755912 -2.871232
2007-04-04 08:18:00 51°27.153 2°34.061 8.9322 3.637865 32.7927 -2.871232
2007-04-04 08:19:00 51°27.336 2°34.064 8.9442 3.643459 32.835701 -2.871232
2007-04-04 08:20:00 51°27.523 2°34.069 8.953 3.648017 32.866553 -2.871232
2007-04-04 08:21:00 51°27.702 2°34.066 8.9605 3.651021 32.888802 -2.871232
2007-04-04 08:22:00 51°27.884 2°34.061 8.9785 3.653611 32.906892 -2.871232
2007-04-04 08:23:00 51°28.068 2°34.067 8.9799 3.657548 32.935847 -2.871232
2007-04-04 08:24:00 51°28.251 2°34.066 8.9752 3.658687 32.940271 -2.871232
2007-04-04 08:25:00 51°28.435 2°34.071 8.9649 3.658377 32.94852 -2.871232
2007-04-04 08:26:00 51°28.622 2°34.074 8.9838 3.62046 32.551686 -2.871232
2007-04-04 08:27:00 51°28.801 2°34.078 9.0309 3.645427 32.795319 -2.871232
2007-04-04 08:28:00 51°28.983 2°34.059 9.0479 3.65734 32.864888 -2.871232
2007-04-04 08:29:00 51°29.165 2°33.99 9.0557 3.683033 33.110462 -2.871232
2007-04-04 08:30:00 51°29.345 2°33.904 9.0622 3.687074 33.142991 -2.871232
2007-04-04 08:31:00 51°29.529 2°33.815 9.0686 3.690596 33.171208 -2.871232
2007-04-04 08:32:00 51°29.704 2°33.677 9.0814 3.693705 33.196152 -2.871232
2007-04-04 08:33:00 51°29.876 2°33.479 9.0894 3.695984 33.204897 -2.871232
2007-04-04 08:34:00 51°30.047 2°33.291 9.098 3.697641 33.213569 -2.871232
2007-04-04 08:35:00 51°30.227 2°33.115 9.102 3.699092 33.222801 -2.871232
2007-04-04 08:36:00 51°30.398 2°32.942 9.1135 3.701371 33.238559 -2.871232
2007-04-04 08:37:00 51°30.572 2°32.771 9.1109 3.70334 33.253841 -2.871232
2007-04-04 08:38:00 51°30.748 2°32.601 9.12 3.705101 33.266172 -2.871232
2007-04-04 08:39:00 51°30.921 2°32.433 9.1268 3.707588 33.283989 -2.871232
2007-04-04 08:40:00 51°31.095 2°32.256 9.1359 3.7108 33.310807 -2.871232
2007-04-04 08:41:00 51°31.242 2°32.096 9.141 3.714011 33.333221 -2.871232
2007-04-04 08:42:00 51°31.322 2°31.985 9.1403 3.71484 33.342383 -2.871232
2007-04-04 08:43:00 51°31.41 2°31.947 9.1421 3.717016 33.357958 -2.871232
2007-04-04 08:44:00 51°31.464 2°31.99 9.1483 3.71712 33.362516 -2.871232
2007-04-04 08:45:00 51°31.523 2°32.054 9.1448 3.717327 33.367229 -2.871232
2007-04-04 08:46:00 51°31.585 2°32.134 9.1455 3.718156 33.37463 -2.871232
2007-04-04 08:47:00 51°31.65 2°32.217 9.1462 3.718363 33.37582 -2.871232
2007-04-04 08:48:00 51°31.705 2°32.301 9.1418 3.718052 33.376238 -2.871232
2007-04-04 08:49:00 51°31.749 2°32.398 9.141 3.718467 33.378618 -2.871232
2007-04-04 08:50:00 51°31.753 2°32.445 9.141 3.718778 33.385249 -2.871232
2007-04-04 08:51:00 51°31.724 2°32.434 9.1341 3.718571 33.38406 -2.871232
2007-04-04 08:52:00 51°31.686 2°32.392 9.1394 3.718053 33.385053 -2.871232
2007-04-04 08:53:00 51°31.649 2°32.339 9.1339 3.717742 33.380182 -2.871232
2007-04-04 08:54:00 51°31.614 2°32.287 9.1326 3.717224 33.380293 -2.871232
2007-04-04 08:55:00 51°31.578 2°32.235 9.1345 3.717534 33.380756 -2.871232
2007-04-04 08:56:00 51°31.542 2°32.188 9.1367 3.717638 33.380028 -2.871232
2007-04-04 08:57:00 51°31.501 2°32.149 9.1399 3.71826 33.382716 -2.871232
2007-04-04 08:58:00 51°31.468 2°32.176 9.1341 3.717534 33.381637 -2.871232
2007-04-04 08:59:00 51°31.525 2°32.161 9.1341 3.716706 33.374233 -2.871232
2007-04-04 09:00:00 51°31.679 2°32.186 9.1366 3.718052 33.381526 -2.871232
2007-04-04 09:01:00 51°31.842 2°32.296 9.1385 3.720643 33.404771 -2.871232
2007-04-04 09:02:00 51°32 2°32.43 9.1407 3.722611 33.423566 -2.871232
2007-04-04 09:03:00 51°32.156 2°32.558 9.1414 3.724477 33.441326 -2.871232
2007-04-04 09:04:00 51°32.312 2°32.688 9.1361 3.724269 33.440137 -2.871232
2007-04-04 09:05:00 51°32.461 2°32.847 9.1349 3.716809 33.367338 -2.871232
2007-04-04 09:06:00 51°32.574 2°33.04 9.1328 3.720643 33.408299 -2.871232
2007-04-04 09:07:00 51°32.632 2°33.167 9.1312 3.722922 33.434618 -2.871232
2007-04-04 09:08:00 51°32.656 2°33.214 9.1375 3.718778 33.391421 -2.871232
2007-04-04 09:09:00 51°32.666 2°33.264 9.1422 3.728103 33.479348 -2.871232
2007-04-04 09:10:00 51°32.696 2°33.283 9.1355 3.727792 33.48066 -2.871232
2007-04-04 09:11:00 51°32.685 2°33.277 9.134 3.727482 33.480204 -2.871232
2007-04-04 09:12:00 51°32.669 2°33.261 9.1303 3.726653 33.475452 -2.871232
2007-04-04 09:13:00 51°32.652 2°33.239 9.1311 3.727067 33.479597 -2.871232
2007-04-04 09:14:00 51°32.633 2°33.21 9.1341 3.727171 33.480633 -2.871232
2007-04-04 09:15:00 51°32.617 2°33.184 9.131 3.727896 33.483465 -2.871232
2007-04-04 09:16:00 51°32.597 2°33.166 9.1302 3.727482 33.483742 -2.871232
2007-04-04 09:17:00 51°32.571 2°33.156 9.1316 3.727378 33.48359 -2.871232
2007-04-04 09:18:00 51°32.546 2°33.157 9.1388 3.727482 33.481973 -2.871232
2007-04-04 09:19:00 51°32.577 2°33.164 9.1414 3.727585 33.480356 -2.871232
2007-04-04 09:20:00 51°32.703 2°33.24 9.1365 3.727792 33.481544 -2.871232
2007-04-04 09:21:00 51°32.864 2°33.313 9.1382 3.728621 33.485412 -2.871232
2007-04-04 09:22:00 51°33.017 2°33.398 9.1414 3.728518 33.483491 -2.871232
2007-04-04 09:23:00 51°33.176 2°33.504 9.1414 3.721264 33.410102 -2.871232
2007-04-04 09:24:00 51°33.325 2°33.638 9.1449 3.721264 33.408338 -2.871232
2007-04-04 09:25:00 51°33.411 2°33.742 9.1425 3.717638 33.37474 -2.871232
2007-04-04 09:26:00 51°33.454 2°33.837 9.1422 3.731315 33.51058 -2.871232
2007-04-04 09:27:00 51°33.472 2°33.923 9.1465 3.732041 33.516948 -2.871232
2007-04-04 09:28:00 51°33.509 2°33.907 9.1508 3.732041 33.516063 -2.871232
2007-04-04 09:29:00 51°33.521 2°33.93 9.1479 3.733284 33.52053 -2.871232
2007-04-04 09:30:00 51°33.499 2°33.929 9.1465 3.732766 33.52243 -2.871232
2007-04-04 09:31:00 51°33.471 2°33.9 9.153 3.732766 33.5242 -2.871232
2007-04-04 09:32:00 51°33.438 2°33.856 9.1509 3.733388 33.522451 -2.871232
2007-04-04 09:33:00 51°33.404 2°33.799 9.1494 3.73318 33.524804 -2.871232
2007-04-04 09:34:00 51°33.372 2°33.781 9.1523 3.732766 33.519775 -2.871232
2007-04-04 09:35:00 51°33.398 2°33.809 9.1458 3.732662 33.521394 -2.871232
2007-04-04 09:36:00 51°33.504 2°33.863 9.1516 3.732869 33.519926 -2.871232
2007-04-04 09:37:00 51°33.634 2°33.916 9.1507 3.734113 33.528818 -2.871232
2007-04-04 09:38:00 51°33.793 2°33.946 9.1535 3.73318 33.51861 -2.871232
2007-04-04 09:39:00 51°33.964 2°33.976 9.1556 3.731004 33.495974 -2.871232
2007-04-04 09:40:01 51°34.129 2°34.004 9.1705 3.72717 33.451476 -2.871232
2007-04-04 09:41:00 51°34.22 2°34.079 9.175 3.722818 33.395658 -2.871232
2007-04-04 09:42:00 51°34.287 2°34.141 9.1797 3.72572 33.421988 -2.871232
2007-04-04 09:43:00 51°34.344 2°34.2 9.1851 3.721575 33.3806 -2.871232
2007-04-04 09:44:00 51°34.369 2°34.204 9.195 3.718259 33.341339 -2.871232
2007-04-04 09:45:00 51°34.353 2°34.212 9.1848 3.726859 33.423673 -2.871232
2007-04-04 09:46:00 51°34.32 2°34.19 9.1823 3.745925 33.617658 -2.871232
2007-04-04 09:47:00 51°34.284 2°34.15 9.1827 3.745511 33.615289 -2.871232
2007-04-04 09:48:00 51°34.243 2°34.105 9.1831 3.745407 33.616914 -2.871232
2007-04-04 09:49:00 51°34.164 2°34.054 9.1826 3.745303 33.612332 -2.871232
2007-04-04 09:50:00 51°34.066 2°33.844 9.18 3.745096 33.61292 -2.871232
2007-04-04 09:51:00 51°33.906 2°33.529 9.1813 3.743749 33.598571 -2.871232
2007-04-04 09:52:00 51°33.74 2°33.203 9.1809 3.743438 33.595465 -2.871232
2007-04-04 09:53:00 51°33.585 2°32.878 9.1775 3.742506 33.587031 -2.871232
2007-04-04 09:54:00 51°33.462 2°32.53 9.1748 3.741366 33.578298 -2.871232
2007-04-04 09:55:00 51°33.341 2°32.186 9.173 3.739604 33.562465 -2.871232
2007-04-04 09:56:00 51°33.275 2°31.892 9.1726 3.73919 33.555668 -2.871232
2007-04-04 09:57:00 51°33.334 2°31.821 9.1805 3.739293 33.554933 -2.871232
2007-04-04 09:58:00 51°33.382 2°31.884 9.1739 3.739086 33.555517 -2.871232
2007-04-04 09:59:00 51°33.46 2°31.981 9.1754 3.739397 33.561279 -2.871232
2007-04-04 10:00:00 51°33.488 2°32.07 9.1808 3.740226 33.566907 -2.871232
2007-04-04 10:01:00 51°33.491 2°32.088 9.1782 3.740951 33.572385 -2.871232
2007-04-04 10:02:00 51°33.475 2°32.076 9.1754 3.740537 33.571785 -2.871232
2007-04-04 10:03:01 51°33.459 2°32.069 9.1795 3.740744 33.573856 -2.871232
2007-04-04 10:04:00 51°33.528 2°32.066 9.179 3.740744 33.57297 -2.871232
2007-04-04 10:05:01 51°33.688 2°32.13 9.1868 3.741884 33.578161 -2.871232
2007-04-04 10:06:00 51°33.856 2°32.226 9.1901 3.743853 33.591633 -2.871232
2007-04-04 10:07:00 51°34.029 2°32.327 9.1922 3.745718 33.60761 -2.871232
2007-04-04 10:08:01 51°34.17 2°32.451 9.1942 3.748412 33.630096 -2.871232
2007-04-04 10:09:00 51°34.239 2°32.517 9.1939 3.749655 33.644293 -2.871232
2007-04-04 10:10:01 51°34.299 2°32.585 9.1931 3.750899 33.658493 -2.871232
2007-04-04 10:11:00 51°34.338 2°32.641 9.1952 3.751313 33.662635 -2.871232
2007-04-04 10:12:00 51°34.342 2°32.65 9.1913 3.751728 33.668553 -2.871232
2007-04-04 10:13:00 51°34.326 2°32.637 9.1913 3.752039 33.670772 -2.871232
2007-04-04 10:14:00 51°34.304 2°32.614 9.1998 3.751728 33.670329 -2.871232
2007-04-04 10:15:00 51°34.293 2°32.602 9.1947 3.752349 33.670328 -2.871232
2007-04-04 10:16:00 51°34.366 2°32.623 9.1909 3.752246 33.671955 -2.871232
2007-04-04 10:17:00 51°34.493 2°32.693 9.1894 3.753179 33.683052 -2.871232
2007-04-04 10:18:00 51°34.646 2°32.797 9.1894 3.753386 33.6869 -2.871232
2007-04-04 10:19:00 51°34.812 2°32.929 9.1884 3.754111 33.692373 -2.871232
2007-04-04 10:20:00 51°34.961 2°33.106 9.1869 3.754318 33.695333 -2.871232
2007-04-04 10:21:01 51°35.074 2°33.32 9.1856 3.754008 33.694892 -2.871232
2007-04-04 10:22:00 51°35.138 2°33.471 9.1838 3.7538 33.697263 -2.871232
2007-04-04 10:23:00 51°35.191 2°33.59 9.1841 3.754318 33.703332 -2.871232
2007-04-04 10:24:01 51°35.199 2°33.656 9.1823 3.754111 33.700371 -2.871232
2007-04-04 10:25:00 51°35.172 2°33.649 9.185 3.754215 33.702296 -2.871232
2007-04-04 10:26:01 51°35.136 2°33.627 9.1844 3.754215 33.702296 -2.871232
2007-04-04 10:27:00 51°35.1 2°33.605 9.1859 3.754215 33.700518 -2.871232
2007-04-04 10:28:00 51°35.07 2°33.631 9.1838 3.754318 33.701554 -2.871232
2007-04-04 10:29:00 51°35.081 2°33.787 9.187 3.754318 33.700666 -2.871232
2007-04-04 10:30:00 51°35.081 2°34.043 9.1882 3.754318 33.697999 -2.871232
2007-04-04 10:31:00 51°35.075 2°34.321 9.1878 3.754008 33.694892 -2.871232
2007-04-04 10:32:00 51°35.094 2°34.617 9.188 3.752868 33.685275 -2.871232
2007-04-04 10:33:01 51°35.139 2°34.795 9.183 3.752246 33.678172 -2.871232
2007-04-04 10:34:00 51°35.148 2°34.865 9.1835 3.751417 33.670774 -2.871232
2007-04-04 10:35:01 51°35.132 2°34.902 9.1818 3.750692 33.667075 -2.871232
2007-04-04 10:36:00 51°35.144 2°34.904 9.181 3.750588 33.664263 -2.871232
2007-04-04 10:37:01 51°35.17 2°34.931 9.1807 3.750692 33.666187 -2.871232
2007-04-04 10:38:00 51°35.189 2°34.98 9.1851 3.750484 33.665003 -2.871232
2007-04-04 10:39:00 51°35.21 2°35.016 9.1805 3.750174 33.658345 -2.871232
2007-04-04 10:40:01 51°35.195 2°35.03 9.1791 3.749656 33.658492 -2.871232
2007-04-04 10:41:00 51°35.17 2°35.022 9.1801 3.749552 33.657457 -2.871232
2007-04-04 10:42:01 51°35.141 2°34.998 9.1957 3.750277 33.657605 -2.871232
2007-04-04 10:43:00 51°35.107 2°34.99 9.191 3.750692 33.659972 -2.871232
2007-04-04 10:44:00 51°35.103 2°35.037 9.1832 3.750381 33.661304 -2.871232
2007-04-04 10:45:00 51°35.131 2°34.964 9.1825 3.749759 33.655977 -2.871232
2007-04-04 10:46:00 51°35.118 2°34.694 9.1921 3.749759 33.65509 -2.871232
2007-04-04 10:47:00 51°35.107 2°34.317 9.1969 3.751831 33.666038 -2.871232
2007-04-04 10:48:00 51°35.09 2°33.937 9.195 3.7538 33.683049 -2.871232
2007-04-04 10:49:01 51°35.076 2°33.553 9.1942 3.754629 33.690445 -2.871232
2007-04-04 10:50:00 51°35.062 2°33.187 9.1939 3.755458 33.700506 -2.871232
2007-04-04 10:51:01 51°35.048 2°32.807 9.1927 3.755769 33.703613 -2.871232
2007-04-04 10:52:00 51°35.035 2°32.442 9.2004 3.756805 33.713081 -2.871232
2007-04-04 10:53:01 51°35.008 2°32.061 9.2096 3.758049 33.717508 -2.871232
2007-04-04 10:54:00 51°34.984 2°31.693 9.2181 3.759706 33.72341 -2.871232
2007-04-04 10:55:00 51°34.953 2°31.325 9.2252 3.760743 33.727541 -2.871232
2007-04-04 10:56:00 51°34.949 2°31.016 9.2259 3.762193 33.734923 -2.871232
2007-04-04 10:57:00 51°35.002 2°30.957 9.2296 3.763126 33.744237 -2.871232
2007-04-04 10:58:00 51°35.051 2°30.995 9.2252 3.763333 33.745418 -2.871232
2007-04-04 10:59:00 51°35.115 2°31.084 9.2327 3.763333 33.747196 -2.871232
2007-04-04 11:00:01 51°35.183 2°31.133 9.2249 3.763126 33.744237 -2.871232
2007-04-04 11:01:00 51°35.224 2°31.177 9.2245 3.76323 33.750606 -2.871232
2007-04-04 11:02:01 51°35.233 2°31.216 9.2217 3.762815 33.747354 -2.871232
2007-04-04 11:03:00 51°35.222 2°31.219 9.2215 3.762504 33.746916 -2.871232
2007-04-04 11:04:01 51°35.2 2°31.206 9.2245 3.762608 33.747062 -2.871232
2007-04-04 11:05:01 51°35.173 2°31.182 9.223 3.762815 33.746465 -2.871232
2007-04-04 11:06:00 51°35.144 2°31.148 9.2231 3.762504 33.746027 -2.871232
2007-04-04 11:07:01 51°35.115 2°31.11 9.2234 3.762815 33.749132 -2.871232
2007-04-04 11:08:00 51°35.092 2°31.074 9.2231 3.762712 33.748097 -2.871232
2007-04-04 11:09:01 51°35.07 2°31.042 9.2227 3.762712 33.748097 -2.871232
2007-04-04 11:10:00 51°35.048 2°31.014 9.2223 3.762815 33.750022 -2.871232
2007-04-04 11:11:01 51°35.022 2°30.988 9.2265 3.763022 33.751203 -2.871232
2007-04-04 11:12:00 51°34.982 2°31.005 9.2246 3.763333 33.748974 -2.871232
2007-04-04 11:13:01 51°34.99 2°31.068 9.2224 3.762712 33.748097 -2.871232
2007-04-04 11:14:01 51°35.107 2°31.163 9.2238 3.762504 33.745138 -2.871232
2007-04-04 11:15:01 51°35.289 2°31.256 9.223 3.762815 33.747354 -2.871232
2007-04-04 11:16:01 51°35.47 2°31.375 9.2206 3.76323 33.750606 -2.871232
2007-04-04 11:17:00 51°35.642 2°31.502 9.2171 3.762919 33.751946 -2.871232
2007-04-04 11:18:01 51°35.818 2°31.629 9.2145 3.763126 33.756685 -2.871232
2007-04-04 11:19:01 51°35.929 2°31.728 9.2109 3.762815 33.757137 -2.871232
2007-04-04 11:20:00 51°35.988 2°31.794 9.2078 3.762401 33.757443 -2.871232
2007-04-04 11:21:01 51°36.044 2°31.839 9.2083 3.762297 33.757297 -2.871232
2007-04-04 11:22:00 51°36.082 2°31.898 9.2088 3.762401 33.760112 -2.871232
2007-04-04 11:23:01 51°36.1 2°31.926 9.2073 3.762297 33.759077 -2.871232
2007-04-04 11:24:00 51°36.091 2°31.92 9.2058 3.76209 33.759675 -2.871232
2007-04-04 11:25:01 51°36.074 2°31.903 9.205 3.761779 33.756568 -2.871232
2007-04-04 11:26:00 51°36.063 2°31.884 9.2064 3.761986 33.757749 -2.871232
2007-04-04 11:27:01 51°36.188 2°31.89 9.2087 3.762194 33.758931 -2.871232
2007-04-04 11:28:01 51°36.374 2°31.973 9.2099 3.762712 33.75966 -2.871232
2007-04-04 11:29:01 51°36.562 2°32.068 9.2136 3.763437 33.765129 -2.871232
2007-04-04 11:30:01 51°36.746 2°32.168 9.2168 3.764266 33.771633 -2.871232
2007-04-04 11:31:01 51°36.875 2°32.263 9.2154 3.764991 33.774432 -2.871232
2007-04-04 11:32:01 51°36.932 2°32.332 9.2165 3.765199 33.779173 -2.871232
2007-04-04 11:33:00 51°36.97 2°32.378 9.2155 3.765406 33.782134 -2.871232
2007-04-04 11:34:01 51°36.993 2°32.4 9.218 3.765302 33.781098 -2.871232
2007-04-04 11:35:00 51°36.993 2°32.379 9.2202 3.765613 33.782424 -2.871232
2007-04-04 11:36:01 51°36.984 2°32.352 9.2193 3.766235 33.782406 -2.871232
2007-04-04 11:37:01 51°36.971 2°32.326 9.2217 3.765717 33.78168 -2.871232
2007-04-04 11:38:00 51°36.957 2°32.303 9.2215 3.766131 33.780481 -2.871232
2007-04-04 11:39:01 51°36.938 2°32.284 9.2221 3.766235 33.784186 -2.871232
2007-04-04 11:40:00 51°36.919 2°32.268 9.2213 3.766235 33.785076 -2.871232
2007-04-04 11:41:01 51°36.9 2°32.252 9.2202 3.766131 33.784041 -2.871232
2007-04-04 11:42:00 51°36.881 2°32.235 9.2214 3.766338 33.785222 -2.871232
2007-04-04 11:43:01 51°36.87 2°32.206 9.2249 3.766338 33.784332 -2.871232
2007-04-04 11:44:00 51°36.923 2°32.207 9.2296 3.76696 33.786093 -2.871232
2007-04-04 11:45:01 51°36.985 2°32.408 9.2316 3.767375 33.787564 -2.871232
2007-04-04 11:46:01 51°37.029 2°32.457 9.2274 3.76696 33.782533 -2.871232
2007-04-04 11:47:01 51°37.024 2°32.469 9.2274 3.766856 33.785058 -2.871232
2007-04-04 11:48:01 51°37.009 2°32.468 9.2269 3.767064 33.788018 -2.871232
2007-04-04 11:49:01 51°36.992 2°32.458 9.2256 3.76696 33.789654 -2.871232
2007-04-04 11:50:01 51°36.974 2°32.448 9.2243 3.766857 33.787728 -2.871232
2007-04-04 11:51:01 51°36.957 2°32.435 9.2244 3.76696 33.789654 -2.871232
2007-04-04 11:52:01 51°36.905 2°32.437 9.2268 3.767271 33.791869 -2.871232
2007-04-04 11:53:00 51°36.867 2°32.302 9.2281 3.766753 33.784023 -2.871232
2007-04-04 11:54:01 51°36.98 2°32.201 9.2377 3.767685 33.78889 -2.871232
2007-04-04 11:55:01 51°37.158 2°32.064 9.25 3.768722 33.786783 -2.871232
2007-04-04 11:56:01 51°37.34 2°31.922 9.2537 3.769758 33.790014 -2.871232
2007-04-04 11:57:01 51°37.526 2°31.787 9.2567 3.770898 33.796947 -2.871232
2007-04-04 11:58:01 51°37.7 2°31.658 9.2632 3.772452 33.808906 -2.871232
2007-04-04 11:59:01 51°37.792 2°31.668 9.2647 3.774317 33.820407 -2.871232
2007-04-04 12:00:01 51°37.834 2°31.724 9.2701 3.774524 33.824256 -2.871232
2007-04-04 12:01:01 51°37.879 2°31.781 9.2654 3.774732 33.827215 -2.871232
2007-04-04 12:02:01 51°37.908 2°31.806 9.2718 3.774524 33.823366 -2.871232
2007-04-04 12:03:01 51°37.907 2°31.798 9.2679 3.774524 33.821586 -2.871232
2007-04-04 12:04:01 51°37.898 2°31.787 9.2678 3.774524 33.824256 -2.871232
2007-04-04 12:05:00 51°37.886 2°31.778 9.2701 3.774421 33.821442 -2.871232
2007-04-04 12:06:01 51°37.872 2°31.77 9.272 3.774732 33.822765 -2.871232
2007-04-04 12:07:00 51°37.857 2°31.764 9.2703 3.775353 33.820963 -2.871232
2007-04-04 12:08:01 51°37.843 2°31.762 9.274 3.775042 33.823198 -2.871232
2007-04-04 12:09:01 51°37.828 2°31.761 9.2759 3.775353 33.822742 -2.871232
2007-04-04 12:10:01 51°37.833 2°31.714 9.2776 3.775457 33.822886 -2.871232
2007-04-04 12:11:01 51°37.903 2°31.672 9.2764 3.775975 33.824498 -2.871232
2007-04-04 12:12:01 51°38.056 2°31.56 9.2849 3.7767 33.829957 -2.871232
2007-04-04 12:13:01 51°38.221 2°31.444 9.2903 3.77784 33.835103 -2.871232
2007-04-04 12:14:01 51°38.39 2°31.332 9.2931 3.779084 33.841281 -2.871232
2007-04-04 12:15:01 51°38.55 2°31.229 9.3054 3.780223 33.847314 -2.871232
2007-04-04 12:16:01 51°38.625 2°31.262 9.3079 3.781778 33.851252 -2.871232
2007-04-04 12:17:01 51°38.684 2°31.338 9.3145 3.781571 33.850964 -2.871232
2007-04-04 12:18:01 51°38.748 2°31.399 9.3065 3.781985 33.853318 -2.871232
2007-04-04 12:19:01 51°38.758 2°31.441 9.3153 3.781778 33.851252 -2.871232
2007-04-04 12:20:01 51°38.748 2°31.453 9.3117 3.781985 33.852429 -2.871232
2007-04-04 12:21:01 51°38.735 2°31.455 9.308 3.781363 33.848897 -2.871232
2007-04-04 12:22:01 51°38.725 2°31.471 9.3271 3.781674 33.850218 -2.871232
2007-04-04 12:23:00 51°38.728 2°31.581 9.3018 3.781881 33.852285 -2.871232
2007-04-04 12:24:01 51°38.709 2°31.912 9.3053 3.780638 33.84789 -2.871232
2007-04-04 12:25:00 51°38.677 2°32.263 9.3013 3.779809 33.840511 -2.871232
2007-04-04 12:26:01 51°38.661 2°32.575 9.3009 3.777633 33.827698 -2.871232
2007-04-04 12:27:01 51°38.71 2°32.712 9.2887 3.776907 33.820462 -2.871232
2007-04-04 12:28:01 51°38.746 2°32.803 9.2855 3.775768 33.817983 -2.871232
2007-04-04 12:29:01 51°38.753 2°32.859 9.2784 3.775975 33.819161 -2.871232
2007-04-04 12:30:01 51°38.744 2°32.877 9.282 3.774732 33.816537 -2.871232
2007-04-04 12:31:01 51°38.733 2°32.889 9.2845 3.77556 33.816804 -2.871232
2007-04-04 12:32:00 51°38.723 2°32.898 9.3127 3.774835 33.813124 -2.871232
2007-04-04 12:33:01 51°38.714 2°32.904 9.3217 3.778669 33.811369 -2.871232
2007-04-04 12:34:01 51°38.706 2°32.908 9.306 3.778047 33.816719 -2.871232
2007-04-04 12:35:01 51°38.699 2°32.913 9.2944 3.777322 33.816596 -2.871232
2007-04-04 12:36:01 51°38.692 2°32.916 9.2931 3.7767 33.815728 -2.871232
2007-04-04 12:37:01 51°38.684 2°32.92 9.2975 3.776597 33.816472 -2.871232
2007-04-04 12:38:01 51°38.673 2°32.941 9.3048 3.776907 33.815128 -2.871232
2007-04-04 12:39:01 51°38.682 2°33.019 9.2862 3.7767 33.819284 -2.871232
2007-04-04 12:40:01 51°38.772 2°33.042 9.2843 3.775871 33.813682 -2.871232
2007-04-04 12:41:01 51°38.97 2°33.123 9.2918 3.775975 33.809382 -2.871232
2007-04-04 12:42:01 51°39.173 2°33.246 9.2994 3.776389 33.820629 -2.871232
2007-04-04 12:43:01 51°39.374 2°33.368 9.2904 3.777529 33.819552 -2.871232
2007-04-04 12:44:01 51°39.508 2°33.448 9.2958 3.777944 33.823686 -2.871232
2007-04-04 12:45:01 51°39.579 2°33.497 9.2799 3.777322 33.826376 -2.871232
2007-04-04 12:46:01 51°39.621 2°33.544 9.2927 3.777115 33.826087 -2.871232
2007-04-04 12:47:01 51°39.652 2°33.555 9.3023 3.778255 33.827675 -2.871232
2007-04-04 12:48:01 51°39.659 2°33.556 9.3048 3.778669 33.826475 -2.871232
2007-04-04 12:49:01 51°39.661 2°33.558 9.3063 3.778876 33.826764 -2.871232
2007-04-04 12:50:01 51°39.662 2°33.56 9.3099 3.778876 33.824986 -2.871232
2007-04-04 12:51:01 51°39.677 2°33.55 9.3117 3.779394 33.825708 -2.871232
2007-04-04 12:52:01 51°39.754 2°33.567 9.2987 3.779291 33.827341 -2.871232
2007-04-04 12:53:01 51°39.945 2°33.658 9.3257 3.779809 33.828063 -2.871232
2007-04-04 12:54:01 51°40.143 2°33.807 9.3167 3.781052 33.831573 -2.871232
2007-04-04 12:55:01 51°40.336 2°33.957 9.3009 3.78012 33.836497 -2.871232
2007-04-04 12:56:01 51°40.444 2°34.049 9.3076 3.779705 33.83592 -2.871232
2007-04-04 12:57:01 51°40.501 2°34.121 9.3204 3.780638 33.839885 -2.871232
2007-04-04 12:58:01 51°40.52 2°34.146 9.301 3.780741 33.840918 -2.871232
2007-04-04 12:59:01 51°40.52 2°34.156 9.2903 3.775975 33.805827 -2.871232
2007-04-04 13:00:01 51°40.509 2°34.161 9.3083 3.775249 33.795039 -2.871232
2007-04-04 13:01:01 51°40.494 2°34.173 9.3109 3.77442 33.774345 -2.871232
2007-04-04 13:02:01 51°40.494 2°34.173 9.304 3.780431 33.836929 -2.871232
2007-04-04 13:03:01 51°40.474 2°34.118 9.3159 3.780327 33.836785 -2.871232
2007-04-04 13:04:01 51°40.335 2°34.033 9.3047 3.780016 33.834574 -2.871232
2007-04-04 13:05:01 51°40.146 2°33.902 9.3074 3.778876 33.819653 -2.871232
2007-04-04 13:06:01 51°39.956 2°33.766 9.3061 3.779809 33.824508 -2.871232
2007-04-04 13:07:01 51°39.767 2°33.632 9.3078 3.778876 33.825875 -2.871232
2007-04-04 13:08:01 51°39.579 2°33.503 9.3231 3.77898 33.821575 -2.871232
2007-04-04 13:09:01 51°39.389 2°33.371 9.3211 3.779394 33.809718 -2.871232
2007-04-04 13:10:01 51°39.194 2°33.243 9.3101 3.78043 33.82271 -2.871232
2007-04-04 13:11:01 51°39.002 2°33.122 9.3139 3.779394 33.824819 -2.871232
2007-04-04 13:12:01 51°38.81 2°33.005 9.3072 3.779601 33.824219 -2.871232
2007-04-04 13:13:01 51°38.616 2°32.881 9.3092 3.780223 33.826863 -2.871232
2007-04-04 13:14:01 51°38.415 2°32.784 9.3205 3.780016 33.831907 -2.871232
2007-04-04 13:15:01 51°38.219 2°32.685 9.3129 3.781259 33.831861 -2.871232
2007-04-04 13:16:01 51°38.027 2°32.577 9.3181 3.780638 33.834551 -2.871232
2007-04-04 13:17:01 51°37.832 2°32.473 9.3215 3.780949 33.834095 -2.871232
2007-04-04 13:18:01 51°37.636 2°32.369 9.311 3.781052 33.836905 -2.871232
2007-04-04 13:19:01 51°37.437 2°32.265 9.3244 3.781259 33.833639 -2.871232
2007-04-04 13:20:01 51°37.242 2°32.162 9.3184 3.781985 33.842647 -2.871232
2007-04-04 13:21:01 51°37.048 2°32.045 9.3252 3.781674 33.839548 -2.871232
2007-04-04 13:22:01 51°36.854 2°31.947 9.3304 3.78271 33.846322 -2.871232
2007-04-04 13:23:01 51°36.661 2°31.844 9.3266 3.783228 33.850598 -2.871232
2007-04-04 13:24:01 51°36.47 2°31.741 9.3261 3.782607 33.84529 -2.871232
2007-04-04 13:25:01 51°36.274 2°31.638 9.3358 3.782088 33.838347 -2.871232
2007-04-04 13:26:01 51°36.078 2°31.533 9.3228 3.783021 33.842311 -2.871232
2007-04-04 13:27:01 51°35.884 2°31.418 9.3176 3.782399 33.837003 -2.871232
2007-04-04 13:28:01 51°35.689 2°31.308 9.3098 3.780638 33.834551 -2.871232
2007-04-04 13:29:01 51°35.495 2°31.199 9.3076 3.779291 33.829119 -2.871232
2007-04-04 13:30:01 51°35.302 2°31.087 9.3076 3.778773 33.824841 -2.871232
2007-04-04 13:31:01 51°35.11 2°30.974 9.3073 3.778669 33.819364 -2.871232
2007-04-04 13:32:01 51°34.914 2°30.876 9.3104 3.777736 33.814508 -2.871232
2007-04-04 13:33:01 51°34.725 2°30.759 9.3097 3.777529 33.812442 -2.871232
2007-04-04 13:34:01 51°34.568 2°30.569 9.302 3.776078 33.805083 -2.871232
2007-04-04 13:35:01 51°34.454 2°30.468 9.2934 3.7767 33.806841 -2.871232
2007-04-04 13:36:01 51°34.377 2°30.395 9.297 3.774939 33.800823 -2.871232
2007-04-04 13:37:01 51°34.348 2°30.334 9.2858 3.77556 33.804359 -2.871232
2007-04-04 13:38:01 51°34.34 2°30.315 9.2976 3.775353 33.80318 -2.871232
2007-04-04 13:39:01 51°34.348 2°30.322 9.2999 3.775975 33.803161 -2.871232
2007-04-04 13:40:01 51°34.355 2°30.334 9.2914 3.775975 33.806715 -2.871232
2007-04-04 13:41:01 51°34.359 2°30.351 9.294 3.775353 33.802292 -2.871232
2007-04-04 13:42:01 51°34.361 2°30.371 9.2931 3.775767 33.804648 -2.871232
2007-04-04 13:43:01 51°34.363 2°30.389 9.2959 3.775457 33.803325 -2.871232
2007-04-04 13:44:01 51°34.352 2°30.339 9.295 3.775767 33.801983 -2.871232
2007-04-04 13:45:01 51°34.26 2°30.126 9.289 3.769861 33.752845 -2.871232
2007-04-04 13:46:01 51°34.122 2°29.899 9.2921 3.771415 33.768347 -2.871232
2007-04-04 13:47:01 51°33.949 2°29.743 9.2924 3.773798 33.779685 -2.871232
2007-04-04 13:48:01 51°33.76 2°29.632 9.3081 3.773799 33.782349 -2.871232
2007-04-04 13:49:01 51°33.624 2°29.548 9.315 3.775975 33.789839 -2.871232
2007-04-04 13:50:01 51°33.526 2°29.514 9.3183 3.775975 33.790727 -2.871232
2007-04-04 13:51:01 51°33.48 2°29.462 9.3165 3.776182 33.784805 -2.871232
2007-04-04 13:52:01 51°33.473 2°29.47 9.3232 3.775145 33.776251 -2.871232
2007-04-04 13:53:01 51°33.461 2°29.479 9.3259 3.776492 33.780804 -2.871232
2007-04-04 13:54:01 51°33.449 2°29.482 9.3239 3.77556 33.777721 -2.871232
2007-04-04 13:55:01 51°33.441 2°29.484 9.3239 3.77556 33.773285 -2.871232
2007-04-04 13:56:01 51°33.438 2°29.483 9.3256 3.775042 33.770783 -2.871232
2007-04-04 13:57:01 51°33.443 2°29.483 9.3287 3.775767 33.770916 -2.871232
2007-04-04 13:58:01 51°33.438 2°29.456 9.3242 3.775871 33.770175 -2.871232
2007-04-04 13:59:01 51°33.35 2°29.395 9.3263 3.775145 33.764721 -2.871232
2007-04-04 14:00:01 51°33.212 2°29.191 9.3239 3.774213 33.758089 -2.871232
2007-04-04 14:01:01 51°33.062 2°28.983 9.317 3.773176 33.750424 -2.871232
2007-04-04 14:02:01 51°32.913 2°28.79 9.3191 3.772037 33.74527 -2.871232
2007-04-04 14:03:01 51°32.783 2°28.65 9.3186 3.772347 33.742164 -2.871232
2007-04-04 14:04:01 51°32.722 2°28.571 9.3246 3.772244 33.740245 -2.871232
2007-04-04 14:05:01 51°32.684 2°28.548 9.3146 3.772037 33.739953 -2.871232
2007-04-04 14:06:01 51°32.679 2°28.528 9.3176 3.771311 33.74336 -2.871232
2007-04-04 14:07:01 51°32.687 2°28.521 9.3215 3.771829 33.738774 -2.871232
2007-04-04 14:08:01 51°32.701 2°28.526 9.3066 3.771311 33.739815 -2.871232
2007-04-04 14:09:01 51°32.716 2°28.538 9.3098 3.771 33.741148 -2.871232
2007-04-04 14:10:01 51°32.729 2°28.557 9.3155 3.77069 33.736277 -2.871232
2007-04-04 14:11:01 51°32.739 2°28.579 9.3124 3.771726 33.7404 -2.871232
2007-04-04 14:12:01 51°32.755 2°28.582 9.3135 3.771311 33.740701 -2.871232
2007-04-04 14:13:01 51°32.739 2°28.54 9.3173 3.771518 33.73479 -2.871232
2007-04-04 14:14:01 51°32.699 2°28.625 9.3211 3.770897 33.733912 -2.871232
2007-04-04 14:15:01 51°32.684 2°28.869 9.2916 3.769757 33.727869 -2.871232
2007-04-04 14:16:01 51°32.693 2°29.239 9.2746 3.764161 33.698671 -2.871232
2007-04-04 14:17:01 51°32.74 2°29.607 9.2908 3.763436 33.69764 -2.871232
2007-04-04 14:18:01 51°32.803 2°29.973 9.2925 3.761882 33.669743 -2.871232
2007-04-04 14:19:01 51°32.861 2°30.339 9.2946 3.763022 33.683763 -2.871232
2007-04-04 14:20:01 51°32.916 2°30.699 9.2926 3.763021 33.677565 -2.871232
2007-04-04 14:21:01 51°32.833 2°30.908 9.284 3.765612 33.706047 -2.871232
2007-04-04 14:22:01 51°32.737 2°31.043 9.2773 3.763954 33.700149 -2.871232
2007-04-04 14:23:01 51°32.675 2°31.061 9.2648 3.763125 33.695426 -2.871232
2007-04-04 14:24:01 51°32.656 2°31.083 9.2688 3.761675 33.691591 -2.871232
2007-04-04 14:25:01 51°32.649 2°31.103 9.2638 3.761157 33.685537 -2.871232
2007-04-04 14:26:01 51°32.638 2°31.129 9.2532 3.760535 33.686424 -2.871232
2007-04-04 14:27:01 51°32.609 2°31.158 9.2562 3.759913 33.683767 -2.871232
2007-04-04 14:28:01 51°32.554 2°31.084 9.2602 3.759913 33.679335 -2.871232
2007-04-04 14:29:01 51°32.437 2°30.892 9.2652 3.759084 33.671065 -2.871232
2007-04-04 14:30:01 51°32.301 2°30.658 9.261 3.758255 33.658368 -2.871232
2007-04-04 14:31:01 51°32.165 2°30.424 9.2625 3.757219 33.648917 -2.871232
2007-04-04 14:32:01 51°32.027 2°30.192 9.2593 3.756286 33.642271 -2.871232
2007-04-04 14:33:01 51°31.907 2°29.966 9.2535 3.755665 33.635185 -2.871232
2007-04-04 14:34:01 51°31.844 2°29.795 9.2489 3.754007 33.625726 -2.871232
2007-04-04 14:35:01 51°31.805 2°29.725 9.2498 3.753178 33.621881 -2.871232
2007-04-04 14:36:01 51°31.788 2°29.656 9.2493 3.753074 33.621732 -2.871232
2007-04-04 14:37:01 51°31.759 2°29.612 9.2475 3.753074 33.621732 -2.871232
2007-04-04 14:38:01 51°31.758 2°29.589 9.2395 3.75297 33.620698 -2.871232
2007-04-04 14:39:01 51°31.762 2°29.582 9.2457 3.752245 33.617001 -2.871232
2007-04-04 14:40:01 51°31.773 2°29.579 9.2422 3.752038 33.614049 -2.871232
2007-04-04 14:41:01 51°31.808 2°29.552 9.2437 3.752245 33.615231 -2.871232
2007-04-04 14:42:01 51°31.87 2°29.563 9.2454 3.752142 33.615967 -2.871232
2007-04-04 14:43:01 51°31.904 2°29.662 9.2477 3.753178 33.620111 -2.871232
2007-04-04 14:44:01 51°31.849 2°29.816 9.2451 3.752452 33.620839 -2.871232
2007-04-04 14:45:01 51°31.741 2°30.089 9.2537 3.751623 33.613452 -2.871232
2007-04-04 14:46:01 51°31.618 2°30.389 9.2562 3.752141 33.610659 -2.871232
2007-04-04 14:47:01 51°31.492 2°30.684 9.26 3.75297 33.612736 -2.871232
2007-04-04 14:48:01 51°31.369 2°30.981 9.267 3.752659 33.607867 -2.871232
2007-04-04 14:49:01 51°31.245 2°31.27 9.2609 3.751623 33.597533 -2.871232
2007-04-04 14:50:01 51°31.122 2°31.565 9.2619 3.749344 33.573916 -2.871232
2007-04-04 14:51:01 51°30.993 2°31.813 9.256 3.748929 33.568899 -2.871232
2007-04-04 14:52:01 51°30.872 2°31.812 9.2634 3.747375 33.558699 -2.871232
2007-04-04 14:53:01 51°30.803 2°31.815 9.2685 3.748929 33.567133 -2.871232
2007-04-04 14:54:01 51°30.766 2°31.783 9.2751 3.75038 33.575415 -2.871232
2007-04-04 14:55:01 51°30.727 2°31.752 9.2891 3.751623 33.579863 -2.871232
2007-04-04 14:56:01 51°30.712 2°31.745 9.3025 3.753074 33.581077 -2.871232
2007-04-04 14:57:01 51°30.712 2°31.736 9.2977 3.75411 33.583458 -2.871232
2007-04-04 14:58:01 51°30.717 2°31.732 9.3056 3.755042 33.590983 -2.871232
2007-04-04 14:59:01 51°30.726 2°31.733 9.3059 3.755457 33.592464 -2.871232
2007-04-04 15:00:01 51°30.739 2°31.739 9.3088 3.755457 33.591581 -2.871232
2007-04-04 15:01:01 51°30.749 2°31.754 9.3091 3.755975 33.593212 -2.871232
2007-04-04 15:02:01 51°30.762 2°31.752 9.3091 3.756389 33.59381 -2.871232
2007-04-04 15:03:02 51°30.752 2°31.713 9.2965 3.756078 33.600423 -2.871232
2007-04-04 15:04:02 51°30.695 2°31.771 9.3134 3.755975 33.602923 -2.871232
2007-04-04 15:05:02 51°30.56 2°31.935 9.3177 3.757736 33.610759 -2.871232
2007-04-04 15:06:02 51°30.409 2°32.167 9.3345 3.758255 33.61592 -2.871232
2007-04-04 15:07:02 51°30.277 2°32.438 9.2947 3.753902 33.568161 -2.871232
2007-04-04 15:08:02 51°30.155 2°32.727 9.2922 3.746027 33.523214 -2.871232
2007-04-04 15:09:02 51°30.032 2°33.018 9.3006 3.736909 33.431487 -2.871232
2007-04-04 15:10:02 51°29.9 2°33.304 9.2837 3.723335 33.293696 -2.871232
2007-04-04 15:11:02 51°29.767 2°33.598 9.2659 3.720952 33.290104 -2.871232
2007-04-04 15:12:02 51°29.631 2°33.891 9.2464 3.718569 33.283883 -2.871232
2007-04-04 15:13:02 51°29.49 2°34.173 9.2145 3.718362 33.306364 -2.871232
2007-04-04 15:14:02 51°29.352 2°34.45 9.2029 3.717534 33.313895 -2.871232
2007-04-04 15:15:02 51°29.22 2°34.727 9.1994 3.716601 33.31952 -2.871232
2007-04-04 15:16:01 51°29.089 2°34.992 9.1709 3.71111 33.273497 -2.871232
2007-04-04 15:17:01 51°28.957 2°35.272 9.1612 3.703961 33.226697 -2.871232
2007-04-04 15:18:01 51°28.823 2°35.548 9.1626 3.700024 33.199658 -2.871232
2007-04-04 15:19:01 51°28.695 2°35.831 9.1521 3.696605 33.161139 -2.871232
2007-04-04 15:20:01 51°28.565 2°36.118 9.1445 3.690699 33.116175 -2.871232
2007-04-04 15:21:01 51°28.427 2°36.397 9.144 3.690492 33.109734 -2.871232
2007-04-04 15:22:01 51°28.286 2°36.673 9.1432 3.687487 33.086728 -2.871232
2007-04-04 15:23:01 51°28.143 2°36.948 9.1707 3.685208 33.053496 -2.871232